KMCN/MCN METAR and TAF weather

Enter ICAO airport designator
Station Type Date Time Source
KMCN METAR 2019/08/22 19:53 UTC NOAA

KMCN 221953Z VRB04KT 10SM FEW060 SCT070 SCT085 33/20 A3001 RMK AO2 SLP156 T03330200


Station Type Date Time Source
KMCN Decoded METAR 2019/08/22 19:53 UTC NOAA

Station name not available
Aug 22, 2019 - 03:53 PM EDT / 2019.08.22 1953 UTC
Wind: Variable at 5 MPH (4 KT):0
Visibility: 10 mile(s):0
Sky conditions: partly cloudy
Temperature: 91.9 F (33.3 C)
Heat index: 95.7 F (35.4 C):1
Dew Point: 68.0 F (20.0 C)
Relative Humidity: 45%
Pressure (altimeter): 30.01 in. Hg (1016 hPa)
ob: KMCN 221953Z VRB04KT 10SM FEW060 SCT070 SCT085 33/20 A3001 RMK AO2 SLP156 T03330200
cycle: 20

Station Type Date Time Source
KMCN TAF 2019/08/22 18:36 UTC NOAA

TAF KMCN 221733Z 2218/2318 23006KT P6SM FEW050
FM222100 20006KT P6SM VCSH SCT050
FM230100 18004KT P6SM SCT050 SCT250
FM231500 VRB03KT P6SM FEW035

Example: see airport list